SRG924 EGJB-EGHQ
Flight info
| Callsign | SRG924 |
|---|---|
| Flight time | 0h 40m |
| Altitude | 1500 |
| Route | NQY |
| Aircraft | S92/L-SBDFGHIM1M3RYZ/LB1 |
Departure
| Time | 2026-04-22 22:34 |
|---|---|
| Airport | Guernsey Airport (EGJB) |
Arrival
| Time | 2026-04-22 23:15 |
|---|---|
| Airport | Cornwall Airport Newquay (EGHQ) |
| Time | Latitude | Longitude | Altitude | Speed | Heading |
|---|---|---|---|---|---|
| 2026-04-22 22:24 | 49.43293 | -2.59843 | 330 ft | 0 kts | 89° |
| 2026-04-22 22:24 | 49.43294 | -2.59842 | 330 ft | 0 kts | 80° |
| 2026-04-22 22:26 | 49.43295 | -2.59841 | 330 ft | 0 kts | 48° |
| 2026-04-22 22:26 | 49.43299 | -2.59842 | 330 ft | 1 kts | 351° |
| 2026-04-22 22:26 | 49.43300 | -2.59857 | 330 ft | 0 kts | 261° |
| 2026-04-22 22:27 | 49.43299 | -2.59871 | 330 ft | 2 kts | 264° |
| 2026-04-22 22:27 | 49.43296 | -2.59895 | 329 ft | 2 kts | 260° |
| 2026-04-22 22:27 | 49.43296 | -2.59920 | 329 ft | 1 kts | 283° |
| 2026-04-22 22:27 | 49.43310 | -2.59929 | 328 ft | 0 kts | 2° |
| 2026-04-22 22:28 | 49.43326 | -2.59931 | 328 ft | 3 kts | 352° |
| 2026-04-22 22:28 | 49.43342 | -2.59957 | 327 ft | 4 kts | 272° |
| 2026-04-22 22:28 | 49.43340 | -2.60000 | 327 ft | 6 kts | 264° |
| 2026-04-22 22:28 | 49.43338 | -2.60096 | 323 ft | 10 kts | 270° |
| 2026-04-22 22:29 | 49.43342 | -2.60188 | 319 ft | 6 kts | 265° |
| 2026-04-22 22:29 | 49.43337 | -2.60246 | 317 ft | 4 kts | 259° |
| 2026-04-22 22:29 | 49.43334 | -2.60283 | 315 ft | 2 kts | 265° |
| 2026-04-22 22:29 | 49.43333 | -2.60313 | 314 ft | 4 kts | 270° |
| 2026-04-22 22:30 | 49.43333 | -2.60379 | 311 ft | 7 kts | 268° |
| 2026-04-22 22:30 | 49.43332 | -2.60471 | 308 ft | 9 kts | 274° |
| 2026-04-22 22:30 | 49.43332 | -2.60563 | 305 ft | 7 kts | 269° |
| 2026-04-22 22:30 | 49.43341 | -2.60628 | 304 ft | 5 kts | 303° |
| 2026-04-22 22:31 | 49.43359 | -2.60650 | 304 ft | 2 kts | 340° |
| 2026-04-22 22:31 | 49.43375 | -2.60654 | 304 ft | 2 kts | 357° |
| 2026-04-22 22:31 | 49.43400 | -2.60652 | 304 ft | 3 kts | 7° |
| 2026-04-22 22:31 | 49.43420 | -2.60651 | 304 ft | 2 kts | 0° |
| 2026-04-22 22:32 | 49.43446 | -2.60652 | 304 ft | 3 kts | 1° |
| 2026-04-22 22:32 | 49.43471 | -2.60647 | 304 ft | 3 kts | 23° |
| 2026-04-22 22:32 | 49.43485 | -2.60623 | 304 ft | 2 kts | 71° |
| 2026-04-22 22:32 | 49.43486 | -2.60608 | 305 ft | 0 kts | 90° |
| 2026-04-22 22:33 | 49.43485 | -2.60607 | 305 ft | 0 kts | 87° |
| 2026-04-22 22:33 | 49.43485 | -2.60602 | 315 ft | 0 kts | 89° |
| 2026-04-22 22:33 | 49.43486 | -2.60519 | 340 ft | 31 kts | 84° |
| 2026-04-22 22:33 | 49.43507 | -2.59861 | 452 ft | 85 kts | 85° |
| 2026-04-22 22:34 | 49.43533 | -2.58788 | 636 ft | 108 kts | 82° |
| 2026-04-22 22:34 | 49.43550 | -2.57626 | 888 ft | 116 kts | 84° |
| 2026-04-22 22:34 | 49.43595 | -2.56332 | 1057 ft | 126 kts | 70° |
| 2026-04-22 22:34 | 49.44183 | -2.55329 | 1333 ft | 138 kts | 28° |
| 2026-04-22 22:35 | 49.45184 | -2.55211 | 1619 ft | 158 kts | 347° |
| 2026-04-22 22:35 | 49.46133 | -2.56196 | 1899 ft | 173 kts | 305° |
| 2026-04-22 22:35 | 49.46621 | -2.57898 | 2134 ft | 180 kts | 279° |
| 2026-04-22 22:35 | 49.47026 | -2.59795 | 2232 ft | 192 kts | 279° |
| 2026-04-22 22:36 | 49.47474 | -2.61764 | 2342 ft | 200 kts | 280° |
| 2026-04-22 22:36 | 49.47939 | -2.63783 | 2509 ft | 201 kts | 279° |
| 2026-04-22 22:36 | 49.48410 | -2.65818 | 2695 ft | 201 kts | 280° |
| 2026-04-22 22:36 | 49.48766 | -2.67841 | 2991 ft | 189 kts | 259° |
| 2026-04-22 22:37 | 49.48955 | -2.69938 | 2848 ft | 206 kts | 276° |
| 2026-04-22 22:37 | 49.49517 | -2.71948 | 3024 ft | 204 kts | 292° |
| 2026-04-22 22:37 | 49.50242 | -2.73771 | 3152 ft | 202 kts | 295° |
| 2026-04-22 22:37 | 49.51011 | -2.75593 | 3125 ft | 203 kts | 296° |
| 2026-04-22 22:38 | 49.51788 | -2.77409 | 3096 ft | 203 kts | 296° |
| 2026-04-22 22:38 | 49.52573 | -2.79229 | 3084 ft | 203 kts | 296° |
| 2026-04-22 22:38 | 49.53346 | -2.81026 | 3060 ft | 203 kts | 296° |
| 2026-04-22 22:38 | 49.54129 | -2.82844 | 3035 ft | 203 kts | 296° |
| 2026-04-22 22:39 | 49.54908 | -2.84651 | 3029 ft | 202 kts | 296° |
| 2026-04-22 22:39 | 49.55679 | -2.86441 | 3014 ft | 202 kts | 296° |
| 2026-04-22 22:39 | 49.56464 | -2.88269 | 2985 ft | 203 kts | 296° |
| 2026-04-22 22:39 | 49.57234 | -2.90060 | 2986 ft | 202 kts | 296° |
| 2026-04-22 22:40 | 49.58007 | -2.91862 | 2987 ft | 201 kts | 296° |
| 2026-04-22 22:40 | 49.58767 | -2.93637 | 2988 ft | 200 kts | 296° |
| 2026-04-22 22:40 | 49.59542 | -2.95440 | 2989 ft | 199 kts | 296° |
| 2026-04-22 22:40 | 49.60305 | -2.97222 | 2988 ft | 199 kts | 296° |
| 2026-04-22 22:41 | 49.61061 | -2.98987 | 2985 ft | 199 kts | 296° |
| 2026-04-22 22:41 | 49.61824 | -3.00773 | 2983 ft | 199 kts | 296° |
| 2026-04-22 22:41 | 49.62588 | -3.02555 | 2982 ft | 199 kts | 296° |
| 2026-04-22 22:41 | 49.63345 | -3.04327 | 2979 ft | 199 kts | 296° |
| 2026-04-22 22:42 | 49.64106 | -3.06113 | 2985 ft | 199 kts | 296° |
| 2026-04-22 22:42 | 49.64874 | -3.07908 | 2986 ft | 199 kts | 296° |
| 2026-04-22 22:42 | 49.65628 | -3.09679 | 2989 ft | 199 kts | 296° |
| 2026-04-22 22:42 | 49.66389 | -3.11465 | 2984 ft | 199 kts | 296° |
| 2026-04-22 22:43 | 49.67157 | -3.13265 | 2983 ft | 199 kts | 296° |
| 2026-04-22 22:43 | 49.67917 | -3.15052 | 2986 ft | 199 kts | 296° |
| 2026-04-22 22:43 | 49.68674 | -3.16832 | 2987 ft | 199 kts | 296° |
| 2026-04-22 22:43 | 49.69432 | -3.18619 | 2991 ft | 199 kts | 296° |
| 2026-04-22 22:44 | 49.70203 | -3.20432 | 2988 ft | 200 kts | 296° |
| 2026-04-22 22:44 | 49.70967 | -3.22234 | 2986 ft | 200 kts | 296° |
| 2026-04-22 22:44 | 49.71723 | -3.24018 | 2983 ft | 200 kts | 296° |
| 2026-04-22 22:44 | 49.72483 | -3.25810 | 2986 ft | 200 kts | 296° |
| 2026-04-22 22:45 | 49.73252 | -3.27627 | 2983 ft | 201 kts | 296° |
| 2026-04-22 22:45 | 49.74011 | -3.29420 | 2986 ft | 201 kts | 296° |
| 2026-04-22 22:45 | 49.74790 | -3.31258 | 2981 ft | 201 kts | 296° |
| 2026-04-22 22:45 | 49.75553 | -3.33062 | 2986 ft | 201 kts | 296° |
| 2026-04-22 22:46 | 49.76311 | -3.34860 | 2986 ft | 201 kts | 296° |
| 2026-04-22 22:46 | 49.77076 | -3.36672 | 2985 ft | 201 kts | 296° |
| 2026-04-22 22:46 | 49.77831 | -3.38464 | 2985 ft | 201 kts | 296° |
| 2026-04-22 22:46 | 49.78593 | -3.40272 | 2984 ft | 201 kts | 296° |
| 2026-04-22 22:47 | 49.79353 | -3.42077 | 2984 ft | 201 kts | 296° |
| 2026-04-22 22:47 | 49.80116 | -3.43888 | 2985 ft | 201 kts | 296° |
| 2026-04-22 22:47 | 49.80885 | -3.45714 | 2985 ft | 201 kts | 296° |
| 2026-04-22 22:47 | 49.81649 | -3.47534 | 2985 ft | 201 kts | 296° |
| 2026-04-22 22:48 | 49.82407 | -3.49337 | 2982 ft | 201 kts | 296° |
| 2026-04-22 22:48 | 49.83164 | -3.51141 | 2982 ft | 202 kts | 296° |
| 2026-04-22 22:48 | 49.83931 | -3.52969 | 2981 ft | 202 kts | 296° |
| 2026-04-22 22:48 | 49.84691 | -3.54782 | 2980 ft | 202 kts | 296° |
| 2026-04-22 22:49 | 49.85456 | -3.56611 | 2979 ft | 202 kts | 296° |
| 2026-04-22 22:49 | 49.86220 | -3.58433 | 2982 ft | 202 kts | 296° |
| 2026-04-22 22:49 | 49.86982 | -3.60255 | 2984 ft | 202 kts | 296° |
| 2026-04-22 22:49 | 49.87745 | -3.62078 | 2991 ft | 202 kts | 296° |
| 2026-04-22 22:50 | 49.88511 | -3.63911 | 2996 ft | 202 kts | 296° |
| 2026-04-22 22:50 | 49.89275 | -3.65740 | 2989 ft | 202 kts | 295° |
| 2026-04-22 22:50 | 49.90045 | -3.67588 | 2991 ft | 202 kts | 295° |
| 2026-04-22 22:50 | 49.90809 | -3.69422 | 2989 ft | 202 kts | 295° |
| 2026-04-22 22:51 | 49.91569 | -3.71245 | 2990 ft | 201 kts | 295° |
| 2026-04-22 22:51 | 49.92321 | -3.73052 | 2991 ft | 201 kts | 295° |
| 2026-04-22 22:51 | 49.93084 | -3.74885 | 2992 ft | 201 kts | 295° |
| 2026-04-22 22:51 | 49.93846 | -3.76715 | 2992 ft | 202 kts | 295° |
| 2026-04-22 22:52 | 49.94604 | -3.78542 | 2991 ft | 202 kts | 295° |
| 2026-04-22 22:52 | 49.95368 | -3.80379 | 2987 ft | 202 kts | 295° |
| 2026-04-22 22:52 | 49.96129 | -3.82219 | 2981 ft | 200 kts | 295° |
| 2026-04-22 22:52 | 49.96868 | -3.83997 | 2985 ft | 197 kts | 295° |
| 2026-04-22 22:53 | 49.97613 | -3.85798 | 2989 ft | 196 kts | 295° |
| 2026-04-22 22:53 | 49.98347 | -3.87566 | 2990 ft | 195 kts | 295° |
| 2026-04-22 22:53 | 49.99075 | -3.89325 | 2994 ft | 194 kts | 295° |
| 2026-04-22 22:53 | 49.99812 | -3.91107 | 2994 ft | 194 kts | 295° |
| 2026-04-22 22:54 | 50.00531 | -3.92850 | 2992 ft | 194 kts | 295° |
| 2026-04-22 22:54 | 50.01259 | -3.94613 | 2991 ft | 193 kts | 295° |
| 2026-04-22 22:54 | 50.01987 | -3.96376 | 2992 ft | 193 kts | 295° |
| 2026-04-22 22:54 | 50.02708 | -3.98121 | 2990 ft | 193 kts | 295° |
| 2026-04-22 22:55 | 50.03439 | -3.99896 | 2990 ft | 193 kts | 295° |
| 2026-04-22 22:55 | 50.04160 | -4.01642 | 2990 ft | 193 kts | 295° |
| 2026-04-22 22:55 | 50.05607 | -4.05164 | 2993 ft | 193 kts | 295° |
| 2026-04-22 22:56 | 50.06325 | -4.06909 | 2991 ft | 193 kts | 295° |
| 2026-04-22 22:56 | 50.07045 | -4.08660 | 2992 ft | 193 kts | 295° |
| 2026-04-22 22:56 | 50.07772 | -4.10434 | 2992 ft | 193 kts | 295° |
| 2026-04-22 22:56 | 50.08493 | -4.12188 | 2994 ft | 193 kts | 294° |
| 2026-04-22 22:57 | 50.09214 | -4.13949 | 2993 ft | 193 kts | 295° |
| 2026-04-22 22:57 | 50.09940 | -4.15722 | 2988 ft | 194 kts | 295° |
| 2026-04-22 22:57 | 50.10662 | -4.17483 | 2985 ft | 194 kts | 294° |
| 2026-04-22 22:57 | 50.11388 | -4.19261 | 2987 ft | 193 kts | 294° |
| 2026-04-22 22:58 | 50.12102 | -4.21010 | 2984 ft | 193 kts | 295° |
| 2026-04-22 22:58 | 50.12822 | -4.22771 | 2989 ft | 193 kts | 295° |
| 2026-04-22 22:58 | 50.13551 | -4.24553 | 2993 ft | 192 kts | 295° |
| 2026-04-22 22:58 | 50.14262 | -4.26297 | 2992 ft | 193 kts | 295° |
| 2026-04-22 22:59 | 50.14987 | -4.28077 | 2992 ft | 193 kts | 295° |
| 2026-04-22 22:59 | 50.15705 | -4.29836 | 2993 ft | 192 kts | 294° |
| 2026-04-22 22:59 | 50.16418 | -4.31587 | 2994 ft | 192 kts | 294° |
| 2026-04-22 22:59 | 50.17141 | -4.33358 | 2992 ft | 192 kts | 294° |
| 2026-04-22 23:00 | 50.17851 | -4.35111 | 2989 ft | 193 kts | 294° |
| 2026-04-22 23:00 | 50.18573 | -4.36886 | 2992 ft | 193 kts | 294° |
| 2026-04-22 23:00 | 50.19286 | -4.38646 | 2991 ft | 193 kts | 295° |
| 2026-04-22 23:00 | 50.20002 | -4.40409 | 2994 ft | 193 kts | 295° |
| 2026-04-22 23:01 | 50.20725 | -4.42190 | 2993 ft | 193 kts | 294° |
| 2026-04-22 23:01 | 50.21440 | -4.43955 | 2991 ft | 193 kts | 295° |
| 2026-04-22 23:01 | 50.22159 | -4.45726 | 2985 ft | 193 kts | 294° |
| 2026-04-22 23:01 | 50.22872 | -4.47492 | 2986 ft | 193 kts | 294° |
| 2026-04-22 23:02 | 50.23584 | -4.49247 | 2993 ft | 192 kts | 294° |
| 2026-04-22 23:02 | 50.24305 | -4.51036 | 2994 ft | 192 kts | 294° |
| 2026-04-22 23:02 | 50.25020 | -4.52803 | 2992 ft | 193 kts | 294° |
| 2026-04-22 23:02 | 50.25730 | -4.54563 | 2995 ft | 192 kts | 294° |
| 2026-04-22 23:03 | 50.26448 | -4.56342 | 2996 ft | 192 kts | 294° |
| 2026-04-22 23:03 | 50.27155 | -4.58100 | 2992 ft | 193 kts | 294° |
| 2026-04-22 23:03 | 50.27877 | -4.59889 | 2991 ft | 193 kts | 294° |
| 2026-04-22 23:03 | 50.28584 | -4.61650 | 2987 ft | 193 kts | 294° |
| 2026-04-22 23:04 | 50.29308 | -4.63445 | 2988 ft | 193 kts | 294° |
| 2026-04-22 23:04 | 50.30020 | -4.65219 | 2985 ft | 193 kts | 293° |
| 2026-04-22 23:04 | 50.30733 | -4.66993 | 2977 ft | 194 kts | 293° |
| 2026-04-22 23:04 | 50.31454 | -4.68785 | 2974 ft | 193 kts | 293° |
| 2026-04-22 23:05 | 50.32158 | -4.70567 | 2987 ft | 192 kts | 290° |
| 2026-04-22 23:05 | 50.32811 | -4.72387 | 2977 ft | 193 kts | 289° |
| 2026-04-22 23:05 | 50.33459 | -4.74208 | 2976 ft | 192 kts | 289° |
| 2026-04-22 23:05 | 50.34078 | -4.76061 | 2986 ft | 191 kts | 286° |
| 2026-04-22 23:06 | 50.34668 | -4.77907 | 2982 ft | 191 kts | 286° |
| 2026-04-22 23:06 | 50.35263 | -4.79797 | 2983 ft | 191 kts | 285° |
| 2026-04-22 23:06 | 50.35834 | -4.81652 | 2989 ft | 191 kts | 285° |
| 2026-04-22 23:06 | 50.36405 | -4.83528 | 2994 ft | 192 kts | 285° |
| 2026-04-22 23:07 | 50.36984 | -4.85411 | 2985 ft | 192 kts | 285° |
| 2026-04-22 23:07 | 50.37560 | -4.87306 | 2984 ft | 191 kts | 284° |
| 2026-04-22 23:07 | 50.38135 | -4.89180 | 2980 ft | 191 kts | 285° |
| 2026-04-22 23:07 | 50.38712 | -4.91061 | 2987 ft | 191 kts | 286° |
| 2026-04-22 23:08 | 50.39286 | -4.92913 | 3057 ft | 187 kts | 284° |
| 2026-04-22 23:08 | 50.39866 | -4.94769 | 2987 ft | 192 kts | 286° |
| 2026-04-22 23:08 | 50.40464 | -4.96634 | 2978 ft | 192 kts | 287° |
| 2026-04-22 23:08 | 50.41089 | -4.98485 | 2988 ft | 191 kts | 287° |
| 2026-04-22 23:09 | 50.41704 | -5.00322 | 2919 ft | 196 kts | 287° |
| 2026-04-22 23:09 | 50.42355 | -5.02266 | 2780 ft | 203 kts | 287° |
| 2026-04-22 23:09 | 50.43005 | -5.04211 | 2706 ft | 204 kts | 288° |
| 2026-04-22 23:09 | 50.43670 | -5.06187 | 2645 ft | 205 kts | 288° |
| 2026-04-22 23:10 | 50.44369 | -5.08148 | 2613 ft | 204 kts | 289° |
| 2026-04-22 23:10 | 50.45056 | -5.10069 | 2575 ft | 204 kts | 288° |
| 2026-04-22 23:10 | 50.45483 | -5.12095 | 2535 ft | 198 kts | 278° |
| 2026-04-22 23:10 | 50.46296 | -5.13912 | 2199 ft | 207 kts | 315° |
| 2026-04-22 23:11 | 50.47577 | -5.14740 | 1965 ft | 194 kts | 358° |
| 2026-04-22 23:11 | 50.48764 | -5.14220 | 1747 ft | 168 kts | 40° |
| 2026-04-22 23:11 | 50.49315 | -5.12802 | 1534 ft | 146 kts | 81° |
| 2026-04-22 23:11 | 50.49016 | -5.11425 | 1425 ft | 136 kts | 125° |
| 2026-04-22 23:12 | 50.48283 | -5.10561 | 1488 ft | 126 kts | 131° |
| 2026-04-22 23:12 | 50.47693 | -5.09616 | 1502 ft | 117 kts | 122° |
| 2026-04-22 23:12 | 50.47229 | -5.08641 | 1486 ft | 107 kts | 114° |
| 2026-04-22 23:12 | 50.46907 | -5.07621 | 1350 ft | 104 kts | 105° |
| 2026-04-22 23:13 | 50.46668 | -5.06588 | 1220 ft | 97 kts | 108° |
| 2026-04-22 23:13 | 50.46359 | -5.05625 | 996 ft | 102 kts | 114° |
| 2026-04-22 23:13 | 50.46005 | -5.04653 | 865 ft | 104 kts | 109° |
| 2026-04-22 23:13 | 50.45647 | -5.03697 | 686 ft | 98 kts | 112° |
| 2026-04-22 23:14 | 50.45328 | -5.02849 | 583 ft | 84 kts | 112° |
| 2026-04-22 23:14 | 50.45030 | -5.02077 | 538 ft | 80 kts | 114° |
| 2026-04-22 23:14 | 50.44755 | -5.01362 | 425 ft | 70 kts | 111° |
| 2026-04-22 23:14 | 50.44541 | -5.00773 | 358 ft | 53 kts | 113° |
| 2026-04-22 23:15 | 50.44378 | -5.00346 | 358 ft | 41 kts | 115° |
| 2026-04-22 23:15 | 50.44245 | -4.99984 | 366 ft | 33 kts | 122° |
| 2026-04-22 23:15 | 50.44168 | -4.99778 | 368 ft | 11 kts | 123° |
| 2026-04-22 23:15 | 50.44148 | -4.99727 | 351 ft | 2 kts | 123° |
| 2026-04-22 23:16 | 50.44137 | -4.99701 | 347 ft | 3 kts | 122° |
| 2026-04-22 23:16 | 50.44114 | -4.99644 | 348 ft | 6 kts | 119° |
| 2026-04-22 23:16 | 50.44091 | -4.99580 | 350 ft | 6 kts | 120° |
| 2026-04-22 23:16 | 50.44101 | -4.99497 | 351 ft | 9 kts | 23° |
| 2026-04-22 23:17 | 50.44178 | -4.99483 | 351 ft | 15 kts | 4° |
| 2026-04-22 23:17 | 50.44253 | -4.99481 | 350 ft | 8 kts | 360° |
| 2026-04-22 23:17 | 50.44309 | -4.99486 | 349 ft | 8 kts | 360° |
| 2026-04-22 23:17 | 50.44367 | -4.99479 | 347 ft | 5 kts | 9° |
| 2026-04-22 23:18 | 50.44402 | -4.99466 | 346 ft | 3 kts | 21° |
| 2026-04-22 23:18 | 50.44403 | -4.99450 | 346 ft | 4 kts | 160° |
| 2026-04-22 23:18 | 50.44395 | -4.99455 | 346 ft | 0 kts | 228° |